Latest Weather Observations for Leonora Airport

IDW60801

Issued at 5:03 am WST Monday 22 December 2014 (issued every 30 minutes, with the page automatically refreshed every 10 minutes)

About weather observations | Map of weather stations | Latest weather observations for WA | Other Formats
Station Details ID: 012241 Name: LEONORA AERO Lat: -28.88 Lon: 121.32 Height: 370.0 m
Data from the previous 72 hours. | See also: Recent months for locations in Western Australia
Date/Time
WST
Temp
°C
App
Temp
°C
Dew
Point
Rel
Hum
%
Delta-T
°C
Wind Press
QNH
hPa
Press
MSL
hPa
Rain
since 9 am
mm
Dir
 
Spd
km/h
Gust
km/h
Spd
kts
Gust
kts
22/05:00am 17.4 14.6 11.2 67 3.4 SE 17 24 9 13 1015.0 1012.6 0.0
22/04:30am 17.6 15.0 10.7 64 3.8 ESE 15 20 8 11 1014.8 1012.4 0.0
22/04:00am 18.1 15.4 10.2 60 4.3 ESE 15 22 8 12 1014.4 1012.0 0.0
22/03:30am 18.5 14.9 9.8 57 4.7 ESE 19 26 10 14 1014.3 1011.9 0.0
22/03:00am 19.0 15.3 9.5 54 5.1 ESE 19 26 10 14 1014.0 1011.6 0.0
22/02:30am 19.5 16.1 9.1 51 5.6 SE 17 24 9 13 1013.9 1011.5 0.0
22/02:00am 20.0 16.2 9.0 49 5.9 SE 19 28 10 15 1013.9 1011.5 0.0
22/01:30am 20.5 16.5 9.1 48 6.1 SE 20 30 11 16 1014.0 1011.6 0.0
22/01:00am 20.7 16.7 8.4 45 6.6 SE 19 26 10 14 1014.1 1011.7 0.0
22/12:30am 21.2 17.6 8.5 44 6.8 SE 17 26 9 14 1014.1 1011.7 0.0
22/12:00am 21.6 17.7 9.5 46 6.6 SE 20 30 11 16 1014.3 1011.9 0.0
 
Date/Time
WST
Temp
°C
App
Temp
°C
Dew
Point
Rel
Hum
%
Delta-T
°C
Wind Press
QNH
hPa
Press
MSL
hPa
Rain
since 9 am
mm
Dir
 
Spd
km/h
Gust
km/h
Spd
kts
Gust
kts
21/11:30pm 21.8 19.1 11.8 53 5.7 ESE 17 24 9 13 1014.4 1012.0 0.0
21/11:00pm 21.9 20.0 13.0 57 5.2 ESE 15 20 8 11 1014.5 1012.1 0.0
21/10:30pm 22.2 20.0 13.3 57 5.2 ESE 17 26 9 14 1014.4 1012.0 0.0
21/10:00pm 22.7 19.7 13.7 56 5.3 ESE 22 32 12 17 1014.4 1012.0 0.0
21/09:30pm 23.0 20.2 13.2 54 5.7 SE 20 28 11 15 1014.2 1011.8 0.0
21/09:00pm 23.2 20.6 13.1 53 5.9 SE 19 26 10 14 1013.9 1011.5 0.0
21/08:30pm 23.7 20.9 13.3 52 6.1 SSE 20 30 11 16 1013.5 1011.0 0.0
21/08:00pm 24.1 21.3 13.3 51 6.4 SSE 20 26 11 14 1013.1 1010.6 0.0
21/07:30pm 24.5 21.7 13.1 49 6.7 SSE 20 32 11 17 1012.4 1010.0 0.0
21/07:00pm 25.0 21.7 12.9 47 7.1 SSE 22 32 12 17 1011.9 1009.5 0.0
21/06:30pm 25.7 22.5 13.2 46 7.4 SSE 22 33 12 18 1011.4 1009.0 0.0
21/06:00pm 26.8 24.0 13.2 43 8.1 S 20 32 11 17 1011.0 1008.5 0.0
21/05:30pm 27.3 24.0 12.9 41 8.6 S 22 30 12 16 1010.8 1008.3 0.0
21/05:00pm 27.6 24.4 13.2 41 8.6 SSE 22 32 12 17 1010.6 1008.1 0.0
21/04:30pm 28.3 24.7 14.2 42 8.6 S 26 39 14 21 1010.4 1007.9 0.0
21/04:00pm 28.2 24.4 12.5 37 9.3 SSW 24 35 13 19 1010.3 1007.8 0.0
21/03:30pm 27.4 25.2 14.4 45 7.9 S 19 28 10 15 1010.6 1008.1 0.0
21/03:00pm 27.0 24.8 14.4 46 7.7 S 19 26 10 14 1010.8 1008.3 0.0
21/02:30pm 26.8 24.2 14.9 48 7.3 SSE 22 35 12 19 1011.0 1008.5 0.0
21/02:00pm 27.6 25.5 15.3 47 7.6 S 20 32 11 17 1011.0 1008.5 0.0
21/01:30pm 26.0 23.7 15.7 53 6.4 SSE 22 33 12 18 1011.1 1008.6 0.0
21/01:00pm 25.8 24.2 16.4 56 5.9 SSE 20 32 11 17 1011.2 1008.8 0.0
21/12:30pm 25.6 23.9 16.2 56 5.8 SSE 20 32 11 17 1011.3 1008.9 0.0
21/12:00pm 25.9 23.8 16.2 55 6.0 SSE 22 32 12 17 1011.4 1009.0 0.0
21/11:30am 24.7 23.1 16.4 60 5.2 SSE 20 32 11 17 1011.7 1009.3 0.0
21/11:00am 24.0 21.9 16.3 62 4.8 S 22 30 12 16 1011.8 1009.4 0.0
21/10:30am 23.3 20.9 16.4 65 4.3 SSW 24 32 13 17 1011.6 1009.2 0.0
21/10:00am 22.9 20.9 16.4 67 4.0 SSW 22 35 12 19 1011.4 1009.0 0.0
21/09:30am 23.8 21.9 16.8 65 4.4 S 22 32 12 17 1011.2 1008.8 0.0
21/09:00am 22.9 20.6 16.7 68 3.9 S 24 32 13 17 1011.0 1008.5 0.4
21/08:30am 23.5 22.0 16.8 66 4.2 S 20 32 11 17 1010.6 1008.1 0.4
21/08:00am 23.7 22.3 17.0 66 4.2 S 20 30 11 16 1010.4 1007.9 0.4
21/07:30am 24.0 23.3 17.3 66 4.2 SSE 17 24 9 13 1010.2 1007.7 0.4
21/07:00am 23.7 22.6 17.2 67 4.1 SE 19 28 10 15 1010.1 1007.6 0.4
21/06:30am 23.3 22.7 17.5 70 3.7 SSE 17 26 9 14 1009.9 1007.4 0.4
21/06:00am 22.9 23.2 17.8 73 3.2 SSE 13 20 7 11 1009.5 1007.1 0.4
21/05:30am 22.1 22.3 17.7 76 2.8 SSW 13 17 7 9 1009.1 1006.7 0.4
21/05:00am 21.9 22.5 17.7 77 2.6 SSW 11 15 6 8 1008.8 1006.4 0.4
21/04:30am 22.1 22.4 17.9 77 2.7 SSE 13 19 7 10 1008.6 1006.1 0.4
21/04:00am 21.8 22.4 17.8 78 2.5 S 11 19 6 10 1008.5 1006.0 0.4
21/03:30am 22.1 22.4 17.9 77 2.7 S 13 17 7 9 1008.2 1005.7 0.4
21/03:00am 22.6 22.5 17.9 75 3.0 SSE 15 20 8 11 1008.1 1005.6 0.4
21/02:30am 22.6 22.9 17.9 75 3.0 SSE 13 22 7 12 1008.1 1005.6 0.4
21/02:00am 22.9 22.5 18.0 74 3.1 S 17 26 9 14 1007.7 1005.2 0.4
21/01:30am 23.2 23.5 17.9 72 3.4 SSE 13 19 7 10 1007.7 1005.2 0.4
21/01:00am 23.7 23.2 17.9 70 3.7 SSE 17 28 9 15 1007.6 1005.1 0.4
21/12:30am 24.2 24.0 17.7 67 4.1 S 15 24 8 13 1007.5 1005.0 0.4
21/12:00am 25.0 24.5 17.7 64 4.6 SSE 17 26 9 14 1007.5 1005.0 0.4
 
Date/Time
WST
Temp
°C
App
Temp
°C
Dew
Point
Rel
Hum
%
Delta-T
°C
Wind Press
QNH
hPa
Press
MSL
hPa
Rain
since 9 am
mm
Dir
 
Spd
km/h
Gust
km/h
Spd
kts
Gust
kts
20/11:30pm 25.7 24.3 17.1 59 5.4 SSE 20 33 11 18 1007.4 1004.9 0.4
20/11:00pm 26.3 24.1 16.8 56 6.0 SSE 24 39 13 21 1007.4 1004.9 0.4
20/10:30pm 27.6 25.3 16.6 51 6.9 SSE 24 35 13 19 1007.2 1004.7 0.4
20/10:00pm 28.7 28.6 16.9 48 7.5 NW 13 20 7 11 1006.2 1003.7 0.4
20/09:30pm 28.7 27.9 17.2 49 7.3 NNW 17 28 9 15 1005.9 1003.4 0.4
20/09:00pm 29.1 27.5 16.6 46 7.9 NNW 20 26 11 14 1005.8 1003.3 0.4
20/08:30pm 29.7 28.7 16.5 45 8.4 NNW 17 20 9 11 1005.7 1003.2 0.4
20/08:00pm 30.7 29.6 15.2 39 9.7 NNW 15 19 8 10 1005.3 1002.8 0.4
20/07:30pm 31.4 29.8 15.0 37 10.2 NNW 17 24 9 13 1004.6 1002.1 0.4
20/07:00pm 31.9 30.8 15.4 37 10.4 NNW 15 20 8 11 1003.7 1001.2 0.4
20/06:30pm 32.4 30.4 15.4 36 10.7 NNW 20 26 11 14 1003.1 1000.6 0.4
20/06:00pm 32.3 30.4 16.6 39 10.1 N 22 28 12 15 1003.0 1000.5 0.4
20/05:30pm 32.4 29.7 16.7 39 10.1 N 26 35 14 19 1003.1 1000.6 0.4
20/05:00pm 33.8 30.7 15.7 33 11.5 NW 26 43 14 23 1003.3 1000.8 0.2
20/04:30pm 32.9 31.5 17.1 39 10.2 NW 20 32 11 17 1003.0 1000.5 0.2
20/04:16pm 31.4 27.6 17.3 43 9.1 W 33 52 18 28 1003.4 1000.9 0.2
20/04:00pm 33.5 30.4 15.5 34 11.4 WNW 26 43 14 23 1003.5 1001.0 0.2
20/03:30pm 36.2 31.1 13.6 25 14.0 NW 33 50 18 27 1003.6 1001.1 0.0
20/03:25pm 36.4 32.1 13.2 25 14.3 NNW 28 50 15 27 1003.6 1001.1 0.0
20/03:00pm 36.5 34.1 14.5 27 13.9 NW 20 30 11 16 1004.1 1001.6 0.0
20/02:30pm 37.1 35.1 15.0 27 14.1 NNW 19 43 10 23 1004.6 1002.1 0.0
20/02:00pm 36.6 34.1 16.2 29 13.2 N 24 37 13 20 1005.7 1003.2 0.0
20/01:30pm 36.5 34.8 17.1 31 12.7 N 22 39 12 21 1006.5 1004.1 0.0
20/01:00pm 35.9 33.8 17.1 32 12.3 NNW 24 35 13 19 1007.2 1004.7 0.0
20/12:30pm 34.4 31.9 17.2 36 11.2 N 26 37 14 20 1007.8 1005.3 0.0
20/12:00pm 33.4 31.7 17.1 37 10.6 NNW 22 33 12 18 1008.4 1005.9 0.0
20/11:30am 32.8 31.0 17.8 40 9.8 N 24 35 13 19 1009.1 1006.7 0.0
20/11:00am 31.8 30.7 17.7 43 9.2 N 20 28 11 15 1009.5 1007.1 0.0
20/10:30am 30.5 27.9 17.9 47 8.2 N 28 35 15 19 1010.2 1007.7 0.0
20/10:00am 29.8 28.6 18.3 50 7.5 N 22 28 12 15 1010.3 1007.8 0.0
20/09:30am 29.1 27.4 18.2 51 7.1 N 24 33 13 18 1010.7 1008.2 0.0
20/09:00am 27.4 25.7 18.1 57 6.0 N 24 32 13 17 1011.2 1008.8 5.8
20/08:30am 26.8 24.5 18.4 60 5.4 N 28 35 15 19 1011.1 1008.6 5.6
20/08:00am 26.3 24.7 19.2 65 4.6 NNE 26 37 14 20 1011.2 1008.8 5.6
20/07:30am 25.7 22.8 18.9 66 4.4 NNE 32 44 17 24 1011.6 1009.2 5.6
20/07:29am 25.8 23.0 19.0 66 4.4 NNE 32 44 17 24 1011.6 1009.2 5.6
20/07:00am 24.7 24.4 19.1 71 3.6 NE 19 26 10 14 1011.7 1009.3 5.6
20/06:30am 23.2 23.9 19.6 80 2.3 NE 15 20 8 11 1011.8 1009.4 5.6
20/06:00am 22.4 22.5 19.2 82 2.1 E 17 20 9 11 1011.7 1009.3 5.6
20/05:33am 22.0 20.8 19.2 84 1.8 NE 24 35 13 19 1011.3 1008.9 5.6
20/05:30am 22.1 20.1 19.1 83 1.9 ENE 28 35 15 19 1011.1 1008.6 5.6
20/05:18am 21.4 21.8 19.1 87 1.5 S 15 26 8 14 1012.0 1009.6 5.6
20/05:04am 24.3 22.6 18.2 68 3.9 W 24 48 13 26 1014.5 1012.1 1.8
20/05:00am 24.6 25.0 18.1 67 4.2 NNW 13 37 7 20 1013.6 1011.2 1.8
20/04:59am 24.6 25.7 18.1 67 4.1 N 9 28 5 15 1013.1 1010.6 1.8
20/04:30am 24.6 24.9 17.8 66 4.3 ENE 13 19 7 10 1010.8 1008.3 1.8
20/04:00am 24.3 24.6 18.0 68 4.0 ENE 13 15 7 8 1010.2 1007.7 1.8
20/03:30am 24.4 24.7 17.9 67 4.1 NE 13 22 7 12 1010.5 1008.0 1.8
20/03:00am 24.6 24.1 17.8 66 4.3 NE 17 28 9 15 1010.3 1007.8 1.8
20/02:30am 24.5 24.0 17.7 66 4.3 NE 17 24 9 13 1010.5 1008.0 1.8
20/02:00am 24.7 25.3 17.7 65 4.4 NE 11 15 6 8 1011.3 1008.9 1.8
20/01:30am 24.8 25.5 18.0 66 4.3 ENE 11 15 6 8 1011.8 1009.4 1.8
20/01:00am 24.7 25.6 19.3 72 3.5 ENE 13 17 7 9 1011.6 1009.2 1.8
20/12:30am 24.8 27.5 19.4 72 3.5 ESE 4 9 2 5 1012.9 1010.4 1.8
20/12:00am 25.0 27.1 18.9 69 3.9 SE 6 9 3 5 1012.8 1010.3 1.8
 
Date/Time
WST
Temp
°C
App
Temp
°C
Dew
Point
Rel
Hum
%
Delta-T
°C
Wind Press
QNH
hPa
Press
MSL
hPa
Rain
since 9 am
mm
Dir
 
Spd
km/h
Gust
km/h
Spd
kts
Gust
kts
19/11:30pm 25.2 28.1 19.1 69 4.0 SE 2 7 1 4 1012.6 1010.1 1.8
19/11:00pm 25.4 26.6 19.1 68 4.1 ENE 11 17 6 9 1012.8 1010.3 1.8
19/10:30pm 25.3 25.1 19.4 70 3.8 NE 19 26 10 14 1012.1 1009.7 1.8
19/10:00pm 24.9 25.9 20.2 75 3.1 ENE 15 20 8 11 1012.8 1010.3 1.8
19/09:53pm 25.0 26.2 20.0 74 3.3 ENE 13 15 7 8 1013.1 1010.6 1.8
19/09:30pm 25.5 27.5 19.9 71 3.7 W 9 13 5 7 1015.1 1012.7 1.6
19/09:00pm 25.7 26.6 19.3 67 4.2 N 13 20 7 11 1013.9 1011.5 1.6
19/08:30pm 26.2 25.2 19.6 67 4.3 NNE 24 35 13 19 1013.1 1010.6 1.6
19/08:00pm 25.9 27.0 20.5 72 3.6 NE 15 22 8 12 1013.1 1010.6 1.6
19/07:30pm 27.0 27.4 19.9 65 4.7 W 17 20 9 11 1014.0 1011.6 1.0
19/07:27pm 27.2 27.5 19.5 62 5.1 W 17 20 9 11 1014.0 1011.6 1.0
19/07:00pm 28.8 31.5 17.7 51 7.1 CALM 0 6 0 3 1011.9 1009.5 0.8
19/06:30pm 29.1 29.9 17.3 49 7.6 ENE 9 13 5 7 1010.8 1008.3 0.8
19/06:00pm 29.2 29.7 18.3 51 7.1 ENE 13 19 7 10 1010.6 1008.1 0.8
19/05:30pm 28.8 29.2 18.9 55 6.5 E 15 20 8 11 1010.8 1008.3 0.8
19/05:00pm 28.9 29.6 18.9 54 6.6 NE 13 19 7 10 1011.5 1009.1 0.8
19/04:30pm 28.9 28.2 17.4 49 7.4 ESE 17 24 9 13 1011.9 1009.5 0.8
19/04:00pm 26.0 26.1 19.2 66 4.4 E 17 22 9 12 1012.1 1009.7 0.8
19/03:54pm 26.0 25.0 18.9 65 4.6 NE 22 39 12 21 1012.4 1010.0 0.8
19/03:39pm 26.5 20.5 17.8 58 5.6 N 46 61 25 33 1011.8 1009.4 0.0
19/03:30pm 26.5 21.0 17.6 58 5.7 NNW 43 70 23 38 1011.4 1009.0 0.0
19/03:27pm 29.5 25.1 15.6 43 8.7 N 33 70 18 38 1011.0 1008.5 0.0
19/03:24pm 29.5 26.4 14.5 40 9.2 NNE 24 54 13 29 1011.1 1008.6 0.0
19/03:23pm 30.4 27.9 14.1 37 10.0 NE 20 43 11 23 1011.3 1008.9 0.0
19/03:00pm 35.8 32.4 9.3 20 15.5 E 17 28 9 15 1010.0 1007.5 0.0
19/02:30pm 36.0 31.2 10.2 21 15.3 E 26 35 14 19 1009.9 1007.4 0.0
19/02:00pm 36.3 32.1 9.8 20 15.6 E 22 37 12 20 1010.7 1008.2 0.0
19/01:30pm 36.6 32.6 9.2 19 16.0 E 20 39 11 21 1011.4 1009.0 0.0
19/01:00pm 37.2 32.2 9.7 19 16.2 E 26 41 14 22 1012.2 1009.8 0.0
19/12:30pm 34.9 30.6 9.3 21 14.9 E 22 33 12 18 1013.1 1010.6 0.0
19/12:00pm 35.3 30.3 9.7 21 15.0 E 26 39 14 21 1013.8 1011.4 0.0
19/11:30am 33.9 29.2 10.5 24 13.8 ENE 26 35 14 19 1014.3 1011.9 0.0
19/11:00am 32.7 27.9 8.9 23 13.6 NE 24 33 13 18 1014.8 1012.4 0.0
19/10:30am 33.2 28.3 8.6 22 14.0 ENE 24 39 13 21 1015.3 1012.9 0.0
19/10:00am 32.4 27.5 8.6 23 13.5 E 24 32 13 17 1015.6 1013.1 0.0
19/09:30am 30.9 25.3 8.6 25 12.6 E 28 37 15 20 1016.0 1013.5 0.0
19/09:00am 30.0 25.3 7.8 25 12.3 ENE 22 30 12 16 1016.2 1013.8 0.0
19/08:30am 29.0 23.9 7.6 26 11.8 E 24 33 13 18 1016.4 1014.0 0.0
19/08:00am 27.8 21.8 7.1 27 11.2 E 28 37 15 20 1016.6 1014.2 0.0
19/07:30am 26.3 20.6 6.9 29 10.4 E 26 35 14 19 1016.5 1014.1 0.0
19/07:00am 25.3 19.9 6.5 30 9.9 E 24 32 13 17 1016.5 1014.1 0.0
19/06:30am 24.4 18.7 6.6 32 9.4 E 26 35 14 19 1016.4 1014.0 0.0
19/06:00am 23.9 18.8 6.2 32 9.2 ESE 22 32 12 17 1016.2 1013.8 0.0
19/05:30am 23.4 18.6 5.8 32 9.1 E 20 28 11 15 1015.9 1013.4 0.0

Other Formats:

Comma delimited format used in spreadsheet applications
http://www.bom.gov.au/fwo/IDW60801/IDW60801.94450.axf

JavaScript Object Notation format (JSON) in row-major order
http://www.bom.gov.au/fwo/IDW60801/IDW60801.94450.json